sensor_id;sensor_type;location;lat;lon;timestamp;temperature;humidity
20740;DHT22;10530;49.968;19.844;2023-08-06T00:02:52;20.60;99.90
20740;DHT22;10530;49.968;19.844;2023-08-06T00:07:55;20.60;99.90
20740;DHT22;10530;49.968;19.844;2023-08-06T00:12:58;20.60;99.90
20740;DHT22;10530;49.968;19.844;2023-08-06T00:18:01;20.50;99.90
20740;DHT22;10530;49.968;19.844;2023-08-06T00:23:04;20.60;99.90
20740;DHT22;10530;49.968;19.844;2023-08-06T00:28:24;20.70;99.90
20740;DHT22;10530;49.968;19.844;2023-08-06T00:33:27;20.70;99.90
20740;DHT22;10530;49.968;19.844;2023-08-06T00:38:29;20.70;99.90
20740;DHT22;10530;49.968;19.844;2023-08-06T00:43:32;20.70;99.90
20740;DHT22;10530;49.968;19.844;2023-08-06T00:48:35;20.70;99.90
20740;DHT22;10530;49.968;19.844;2023-08-06T00:53:38;20.80;99.90
20740;DHT22;10530;49.968;19.844;2023-08-06T00:58:41;20.70;99.90
20740;DHT22;10530;49.968;19.844;2023-08-06T01:03:44;20.70;99.90
20740;DHT22;10530;49.968;19.844;2023-08-06T01:08:57;20.70;99.90
20740;DHT22;10530;49.968;19.844;2023-08-06T01:14:28;20.70;99.90
20740;DHT22;10530;49.968;19.844;2023-08-06T01:19:32;20.70;99.90
20740;DHT22;10530;49.968;19.844;2023-08-06T01:24:35;20.80;99.90
20740;DHT22;10530;49.968;19.844;2023-08-06T01:29:49;20.80;99.90
20740;DHT22;10530;49.968;19.844;2023-08-06T01:34:54;20.90;99.90
20740;DHT22;10530;49.968;19.844;2023-08-06T01:39:57;20.90;99.90
20740;DHT22;10530;49.968;19.844;2023-08-06T01:45:00;20.90;99.90
20740;DHT22;10530;49.968;19.844;2023-08-06T01:50:03;21.00;99.90
20740;DHT22;10530;49.968;19.844;2023-08-06T01:55:05;21.00;99.90
20740;DHT22;10530;49.968;19.844;2023-08-06T02:00:08;21.10;99.90
20740;DHT22;10530;49.968;19.844;2023-08-06T02:05:14;21.00;99.90
20740;DHT22;10530;49.968;19.844;2023-08-06T02:10:17;21.00;99.90
20740;DHT22;10530;49.968;19.844;2023-08-06T02:15:19;21.00;99.90
20740;DHT22;10530;49.968;19.844;2023-08-06T02:20:22;21.00;99.90
20740;DHT22;10530;49.968;19.844;2023-08-06T02:25:24;21.00;99.90
20740;DHT22;10530;49.968;19.844;2023-08-06T02:30:27;21.00;99.90
20740;DHT22;10530;49.968;19.844;2023-08-06T02:35:30;21.10;99.90
20740;DHT22;10530;49.968;19.844;2023-08-06T02:40:32;21.10;99.90
20740;DHT22;10530;49.968;19.844;2023-08-06T02:45:35;21.10;99.90
20740;DHT22;10530;49.968;19.844;2023-08-06T02:50:39;21.10;99.90
20740;DHT22;10530;49.968;19.844;2023-08-06T02:55:46;21.00;99.90
20740;DHT22;10530;49.968;19.844;2023-08-06T03:01:06;21.00;99.90
20740;DHT22;10530;49.968;19.844;2023-08-06T03:06:18;21.00;99.90
20740;DHT22;10530;49.968;19.844;2023-08-06T03:11:25;21.00;99.90
20740;DHT22;10530;49.968;19.844;2023-08-06T03:16:33;21.00;99.90
20740;DHT22;10530;49.968;19.844;2023-08-06T03:21:36;21.10;99.90
20740;DHT22;10530;49.968;19.844;2023-08-06T03:26:39;21.10;99.90
20740;DHT22;10530;49.968;19.844;2023-08-06T03:31:44;21.10;99.90
20740;DHT22;10530;49.968;19.844;2023-08-06T03:36:50;21.10;99.90
20740;DHT22;10530;49.968;19.844;2023-08-06T03:41:53;21.10;99.90
20740;DHT22;10530;49.968;19.844;2023-08-06T03:46:56;21.10;99.90
20740;DHT22;10530;49.968;19.844;2023-08-06T03:51:59;21.10;99.90
20740;DHT22;10530;49.968;19.844;2023-08-06T03:57:02;21.20;99.90
20740;DHT22;10530;49.968;19.844;2023-08-06T04:02:06;21.20;99.90
20740;DHT22;10530;49.968;19.844;2023-08-06T04:07:09;21.20;99.90
20740;DHT22;10530;49.968;19.844;2023-08-06T04:12:12;21.20;99.90
20740;DHT22;10530;49.968;19.844;2023-08-06T04:17:14;21.20;99.90
20740;DHT22;10530;49.968;19.844;2023-08-06T04:22:18;21.20;99.90
20740;DHT22;10530;49.968;19.844;2023-08-06T04:27:21;21.20;99.90
20740;DHT22;10530;49.968;19.844;2023-08-06T04:32:24;21.20;99.90
20740;DHT22;10530;49.968;19.844;2023-08-06T04:37:29;21.20;99.90
20740;DHT22;10530;49.968;19.844;2023-08-06T04:42:32;21.20;99.90
20740;DHT22;10530;49.968;19.844;2023-08-06T04:47:35;21.30;99.90
20740;DHT22;10530;49.968;19.844;2023-08-06T04:52:38;21.30;99.90
20740;DHT22;10530;49.968;19.844;2023-08-06T04:57:40;21.30;99.90
20740;DHT22;10530;49.968;19.844;2023-08-06T05:02:43;21.30;99.90
20740;DHT22;10530;49.968;19.844;2023-08-06T05:07:49;21.40;99.90
20740;DHT22;10530;49.968;19.844;2023-08-06T05:12:52;21.40;99.90
20740;DHT22;10530;49.968;19.844;2023-08-06T05:17:55;21.40;99.90
20740;DHT22;10530;49.968;19.844;2023-08-06T05:22:57;21.40;99.90
20740;DHT22;10530;49.968;19.844;2023-08-06T05:28:00;21.50;99.90
20740;DHT22;10530;49.968;19.844;2023-08-06T05:33:04;21.50;99.90
20740;DHT22;10530;49.968;19.844;2023-08-06T05:38:06;21.50;99.90
20740;DHT22;10530;49.968;19.844;2023-08-06T05:43:09;21.60;99.90
20740;DHT22;10530;49.968;19.844;2023-08-06T05:48:12;21.60;99.90
20740;DHT22;10530;49.968;19.844;2023-08-06T05:53:14;21.50;99.90
20740;DHT22;10530;49.968;19.844;2023-08-06T05:58:17;21.60;99.90
20740;DHT22;10530;49.968;19.844;2023-08-06T06:03:20;21.70;99.90
20740;DHT22;10530;49.968;19.844;2023-08-06T06:08:23;21.90;99.90
20740;DHT22;10530;49.968;19.844;2023-08-06T06:13:25;21.90;99.90
20740;DHT22;10530;49.968;19.844;2023-08-06T06:18:28;21.90;99.90
20740;DHT22;10530;49.968;19.844;2023-08-06T06:23:30;21.90;99.90
20740;DHT22;10530;49.968;19.844;2023-08-06T06:28:33;21.90;99.90
20740;DHT22;10530;49.968;19.844;2023-08-06T06:33:36;21.90;99.90
20740;DHT22;10530;49.968;19.844;2023-08-06T06:38:39;21.60;99.90
20740;DHT22;10530;49.968;19.844;2023-08-06T06:43:42;21.30;99.90
20740;DHT22;10530;49.968;19.844;2023-08-06T06:48:44;21.30;99.90
20740;DHT22;10530;49.968;19.844;2023-08-06T06:53:47;21.10;99.90
20740;DHT22;10530;49.968;19.844;2023-08-06T06:58:50;21.00;99.90
20740;DHT22;10530;49.968;19.844;2023-08-06T07:03:53;21.00;99.90
20740;DHT22;10530;49.968;19.844;2023-08-06T07:08:56;21.00;99.90
20740;DHT22;10530;49.968;19.844;2023-08-06T07:13:59;20.80;99.90
20740;DHT22;10530;49.968;19.844;2023-08-06T07:19:01;20.70;99.90
20740;DHT22;10530;49.968;19.844;2023-08-06T07:24:04;20.30;99.90
20740;DHT22;10530;49.968;19.844;2023-08-06T07:29:07;19.90;99.90
20740;DHT22;10530;49.968;19.844;2023-08-06T07:34:09;19.80;99.90
20740;DHT22;10530;49.968;19.844;2023-08-06T07:39:12;19.80;99.90
20740;DHT22;10530;49.968;19.844;2023-08-06T07:44:15;19.60;99.90
20740;DHT22;10530;49.968;19.844;2023-08-06T07:49:18;19.70;99.90
20740;DHT22;10530;49.968;19.844;2023-08-06T07:54:20;19.60;99.90
20740;DHT22;10530;49.968;19.844;2023-08-06T07:59:23;19.40;99.90
20740;DHT22;10530;49.968;19.844;2023-08-06T08:04:26;19.10;99.90
20740;DHT22;10530;49.968;19.844;2023-08-06T08:09:28;19.10;99.90
20740;DHT22;10530;49.968;19.844;2023-08-06T08:14:31;18.90;99.90
20740;DHT22;10530;49.968;19.844;2023-08-06T08:19:40;18.70;99.90
20740;DHT22;10530;49.968;19.844;2023-08-06T08:24:43;18.70;99.90
20740;DHT22;10530;49.968;19.844;2023-08-06T08:29:46;18.70;99.90
20740;DHT22;10530;49.968;19.844;2023-08-06T08:34:49;18.70;99.90
20740;DHT22;10530;49.968;19.844;2023-08-06T08:39:52;18.70;99.90
20740;DHT22;10530;49.968;19.844;2023-08-06T08:44:55;18.70;99.90
20740;DHT22;10530;49.968;19.844;2023-08-06T08:49:59;18.80;99.90
20740;DHT22;10530;49.968;19.844;2023-08-06T08:55:03;18.90;99.90
20740;DHT22;10530;49.968;19.844;2023-08-06T09:00:07;18.90;99.90
20740;DHT22;10530;49.968;19.844;2023-08-06T09:05:10;18.80;99.90
20740;DHT22;10530;49.968;19.844;2023-08-06T09:10:16;18.90;99.90
20740;DHT22;10530;49.968;19.844;2023-08-06T09:15:23;18.80;99.90
20740;DHT22;10530;49.968;19.844;2023-08-06T09:20:26;18.90;99.90
20740;DHT22;10530;49.968;19.844;2023-08-06T09:25:29;18.80;99.90
20740;DHT22;10530;49.968;19.844;2023-08-06T09:30:37;18.80;99.90
20740;DHT22;10530;49.968;19.844;2023-08-06T09:35:41;18.80;99.90
20740;DHT22;10530;49.968;19.844;2023-08-06T09:40:43;19.10;99.90
20740;DHT22;10530;49.968;19.844;2023-08-06T09:45:46;18.90;99.90
20740;DHT22;10530;49.968;19.844;2023-08-06T09:50:50;18.60;99.90
20740;DHT22;10530;49.968;19.844;2023-08-06T09:55:54;18.50;99.90
20740;DHT22;10530;49.968;19.844;2023-08-06T10:01:00;18.50;99.90
20740;DHT22;10530;49.968;19.844;2023-08-06T10:06:04;18.50;99.90
20740;DHT22;10530;49.968;19.844;2023-08-06T10:11:09;18.30;99.90
20740;DHT22;10530;49.968;19.844;2023-08-06T10:16:13;18.20;99.90
20740;DHT22;10530;49.968;19.844;2023-08-06T10:21:17;18.20;99.90
20740;DHT22;10530;49.968;19.844;2023-08-06T10:26:20;18.20;99.90
20740;DHT22;10530;49.968;19.844;2023-08-06T10:31:55;18.20;99.90
20740;DHT22;10530;49.968;19.844;2023-08-06T10:36:58;18.20;99.90
20740;DHT22;10530;49.968;19.844;2023-08-06T10:42:01;18.20;99.90
20740;DHT22;10530;49.968;19.844;2023-08-06T10:47:26;18.10;99.90
20740;DHT22;10530;49.968;19.844;2023-08-06T10:52:30;18.00;99.90
20740;DHT22;10530;49.968;19.844;2023-08-06T10:57:33;17.90;99.90
20740;DHT22;10530;49.968;19.844;2023-08-06T11:02:36;17.90;99.90
20740;DHT22;10530;49.968;19.844;2023-08-06T11:07:39;17.90;99.90
20740;DHT22;10530;49.968;19.844;2023-08-06T11:12:42;17.80;99.90
20740;DHT22;10530;49.968;19.844;2023-08-06T11:17:45;17.80;99.90
20740;DHT22;10530;49.968;19.844;2023-08-06T11:22:48;17.80;99.90
20740;DHT22;10530;49.968;19.844;2023-08-06T11:27:51;17.70;99.90
20740;DHT22;10530;49.968;19.844;2023-08-06T11:32:54;17.50;99.90
20740;DHT22;10530;49.968;19.844;2023-08-06T11:37:57;17.40;99.90
20740;DHT22;10530;49.968;19.844;2023-08-06T11:42:59;17.40;99.90
20740;DHT22;10530;49.968;19.844;2023-08-06T11:54:31;17.30;99.90
20740;DHT22;10530;49.968;19.844;2023-08-06T11:59:38;17.30;99.90
20740;DHT22;10530;49.968;19.844;2023-08-06T12:05:09;17.20;99.90
20740;DHT22;10530;49.968;19.844;2023-08-06T12:10:15;17.20;99.90
20740;DHT22;10530;49.968;19.844;2023-08-06T12:15:18;17.30;99.90
20740;DHT22;10530;49.968;19.844;2023-08-06T12:20:21;17.30;99.90
20740;DHT22;10530;49.968;19.844;2023-08-06T12:25:25;17.20;99.90
20740;DHT22;10530;49.968;19.844;2023-08-06T12:30:29;17.20;99.90
20740;DHT22;10530;49.968;19.844;2023-08-06T12:35:35;17.50;99.90
20740;DHT22;10530;49.968;19.844;2023-08-06T12:40:37;17.60;99.90
20740;DHT22;10530;49.968;19.844;2023-08-06T12:45:44;17.40;99.90
20740;DHT22;10530;49.968;19.844;2023-08-06T12:50:47;17.30;99.90
20740;DHT22;10530;49.968;19.844;2023-08-06T12:55:51;17.20;99.90
20740;DHT22;10530;49.968;19.844;2023-08-06T13:00:54;17.20;99.90
20740;DHT22;10530;49.968;19.844;2023-08-06T13:05:57;17.10;99.90
20740;DHT22;10530;49.968;19.844;2023-08-06T13:11:01;17.10;99.90
20740;DHT22;10530;49.968;19.844;2023-08-06T13:16:04;17.00;99.90
20740;DHT22;10530;49.968;19.844;2023-08-06T13:21:07;17.00;99.90
20740;DHT22;10530;49.968;19.844;2023-08-06T13:26:09;17.00;99.90
20740;DHT22;10530;49.968;19.844;2023-08-06T13:31:12;17.00;99.90
20740;DHT22;10530;49.968;19.844;2023-08-06T13:36:18;17.00;99.90
20740;DHT22;10530;49.968;19.844;2023-08-06T13:41:21;17.00;99.90
20740;DHT22;10530;49.968;19.844;2023-08-06T13:46:24;17.10;99.90
20740;DHT22;10530;49.968;19.844;2023-08-06T13:51:27;17.00;99.90
20740;DHT22;10530;49.968;19.844;2023-08-06T13:56:29;17.00;99.90
20740;DHT22;10530;49.968;19.844;2023-08-06T14:01:34;17.00;99.90
20740;DHT22;10530;49.968;19.844;2023-08-06T14:06:51;17.00;99.90
20740;DHT22;10530;49.968;19.844;2023-08-06T14:11:55;17.10;99.90
20740;DHT22;10530;49.968;19.844;2023-08-06T14:16:57;17.10;99.90
20740;DHT22;10530;49.968;19.844;2023-08-06T14:22:01;17.30;99.90
20740;DHT22;10530;49.968;19.844;2023-08-06T14:27:04;17.60;99.90
20740;DHT22;10530;49.968;19.844;2023-08-06T14:32:08;17.80;99.90
20740;DHT22;10530;49.968;19.844;2023-08-06T14:37:11;18.20;99.90
20740;DHT22;10530;49.968;19.844;2023-08-06T14:42:14;18.50;99.90
20740;DHT22;10530;49.968;19.844;2023-08-06T14:47:16;18.40;99.90
20740;DHT22;10530;49.968;19.844;2023-08-06T14:52:19;18.40;99.90
20740;DHT22;10530;49.968;19.844;2023-08-06T14:57:22;18.10;99.90
20740;DHT22;10530;49.968;19.844;2023-08-06T15:02:30;18.20;99.90
20740;DHT22;10530;49.968;19.844;2023-08-06T15:07:32;18.20;99.90
20740;DHT22;10530;49.968;19.844;2023-08-06T15:12:37;18.20;99.90
20740;DHT22;10530;49.968;19.844;2023-08-06T15:17:41;18.10;99.90
20740;DHT22;10530;49.968;19.844;2023-08-06T15:22:44;18.10;99.90
20740;DHT22;10530;49.968;19.844;2023-08-06T15:27:47;17.90;99.90
20740;DHT22;10530;49.968;19.844;2023-08-06T15:32:50;17.90;99.90
20740;DHT22;10530;49.968;19.844;2023-08-06T15:37:52;18.00;99.90
20740;DHT22;10530;49.968;19.844;2023-08-06T15:42:55;18.10;99.90
20740;DHT22;10530;49.968;19.844;2023-08-06T15:47:58;18.00;99.90
20740;DHT22;10530;49.968;19.844;2023-08-06T15:53:01;17.90;99.90
20740;DHT22;10530;49.968;19.844;2023-08-06T15:58:04;17.80;99.90
20740;DHT22;10530;49.968;19.844;2023-08-06T16:03:07;17.70;99.90
20740;DHT22;10530;49.968;19.844;2023-08-06T16:08:10;17.80;99.90
20740;DHT22;10530;49.968;19.844;2023-08-06T16:13:13;17.80;99.90
20740;DHT22;10530;49.968;19.844;2023-08-06T16:18:16;17.70;99.90
20740;DHT22;10530;49.968;19.844;2023-08-06T16:23:18;17.60;99.90
20740;DHT22;10530;49.968;19.844;2023-08-06T16:28:21;17.40;99.90
20740;DHT22;10530;49.968;19.844;2023-08-06T16:33:24;17.40;99.90
20740;DHT22;10530;49.968;19.844;2023-08-06T16:38:27;17.60;99.90
20740;DHT22;10530;49.968;19.844;2023-08-06T16:43:30;17.30;99.90
20740;DHT22;10530;49.968;19.844;2023-08-06T16:48:33;17.20;99.90
20740;DHT22;10530;49.968;19.844;2023-08-06T16:53:38;17.20;99.90
20740;DHT22;10530;49.968;19.844;2023-08-06T16:58:41;17.20;99.90
20740;DHT22;10530;49.968;19.844;2023-08-06T17:03:44;17.10;99.90
20740;DHT22;10530;49.968;19.844;2023-08-06T17:08:47;17.00;99.90
20740;DHT22;10530;49.968;19.844;2023-08-06T17:13:49;17.00;99.90
20740;DHT22;10530;49.968;19.844;2023-08-06T17:18:52;17.00;99.90
20740;DHT22;10530;49.968;19.844;2023-08-06T17:23:55;16.90;99.90
20740;DHT22;10530;49.968;19.844;2023-08-06T17:28:57;16.90;99.90
20740;DHT22;10530;49.968;19.844;2023-08-06T17:34:00;16.90;99.90
20740;DHT22;10530;49.968;19.844;2023-08-06T17:39:03;16.80;99.90
20740;DHT22;10530;49.968;19.844;2023-08-06T17:44:07;16.90;99.90
20740;DHT22;10530;49.968;19.844;2023-08-06T17:49:09;16.80;99.90
20740;DHT22;10530;49.968;19.844;2023-08-06T17:54:12;16.80;99.90
20740;DHT22;10530;49.968;19.844;2023-08-06T17:59:15;16.70;99.90
20740;DHT22;10530;49.968;19.844;2023-08-06T18:04:18;16.70;99.90
20740;DHT22;10530;49.968;19.844;2023-08-06T18:09:21;16.80;99.90
20740;DHT22;10530;49.968;19.844;2023-08-06T18:14:24;16.70;99.90
20740;DHT22;10530;49.968;19.844;2023-08-06T18:19:27;16.70;99.90
20740;DHT22;10530;49.968;19.844;2023-08-06T18:24:30;16.60;99.90
20740;DHT22;10530;49.968;19.844;2023-08-06T18:29:33;16.60;99.90
20740;DHT22;10530;49.968;19.844;2023-08-06T18:34:36;16.50;99.90
20740;DHT22;10530;49.968;19.844;2023-08-06T18:39:38;16.50;99.90
20740;DHT22;10530;49.968;19.844;2023-08-06T18:44:44;16.40;99.90
20740;DHT22;10530;49.968;19.844;2023-08-06T18:49:47;16.40;99.90
20740;DHT22;10530;49.968;19.844;2023-08-06T18:54:50;16.40;99.90
20740;DHT22;10530;49.968;19.844;2023-08-06T18:59:53;16.40;99.90
20740;DHT22;10530;49.968;19.844;2023-08-06T19:04:56;16.30;99.90
20740;DHT22;10530;49.968;19.844;2023-08-06T19:10:00;16.20;99.90
20740;DHT22;10530;49.968;19.844;2023-08-06T19:15:04;16.20;99.90
20740;DHT22;10530;49.968;19.844;2023-08-06T19:20:07;16.20;99.90
20740;DHT22;10530;49.968;19.844;2023-08-06T19:25:10;16.10;99.90
20740;DHT22;10530;49.968;19.844;2023-08-06T19:30:13;16.10;99.90
20740;DHT22;10530;49.968;19.844;2023-08-06T19:35:16;16.10;99.90
20740;DHT22;10530;49.968;19.844;2023-08-06T19:40:19;16.10;99.90
20740;DHT22;10530;49.968;19.844;2023-08-06T19:45:21;16.10;99.90
20740;DHT22;10530;49.968;19.844;2023-08-06T19:50:24;16.10;99.90
20740;DHT22;10530;49.968;19.844;2023-08-06T19:55:27;16.00;99.90
20740;DHT22;10530;49.968;19.844;2023-08-06T20:00:30;16.00;99.90
20740;DHT22;10530;49.968;19.844;2023-08-06T20:05:33;15.80;99.90
20740;DHT22;10530;49.968;19.844;2023-08-06T20:10:35;15.80;99.90
20740;DHT22;10530;49.968;19.844;2023-08-06T20:15:38;15.80;99.90
20740;DHT22;10530;49.968;19.844;2023-08-06T20:20:41;15.80;99.90
20740;DHT22;10530;49.968;19.844;2023-08-06T20:25:44;15.70;99.90
20740;DHT22;10530;49.968;19.844;2023-08-06T20:30:47;15.70;99.90
20740;DHT22;10530;49.968;19.844;2023-08-06T20:35:49;15.70;99.90
20740;DHT22;10530;49.968;19.844;2023-08-06T20:40:53;15.70;99.90
20740;DHT22;10530;49.968;19.844;2023-08-06T20:45:58;15.70;99.90
20740;DHT22;10530;49.968;19.844;2023-08-06T20:51:06;15.70;99.90
20740;DHT22;10530;49.968;19.844;2023-08-06T20:56:09;15.60;99.90
20740;DHT22;10530;49.968;19.844;2023-08-06T21:01:12;15.60;99.90
20740;DHT22;10530;49.968;19.844;2023-08-06T21:06:14;15.50;99.90
20740;DHT22;10530;49.968;19.844;2023-08-06T21:11:18;15.50;99.90
20740;DHT22;10530;49.968;19.844;2023-08-06T21:16:21;15.60;99.90
20740;DHT22;10530;49.968;19.844;2023-08-06T21:21:24;15.70;99.90
20740;DHT22;10530;49.968;19.844;2023-08-06T21:26:27;15.70;99.90
20740;DHT22;10530;49.968;19.844;2023-08-06T21:31:30;15.80;99.90
20740;DHT22;10530;49.968;19.844;2023-08-06T21:36:32;15.80;99.90
20740;DHT22;10530;49.968;19.844;2023-08-06T21:41:35;15.90;99.90
20740;DHT22;10530;49.968;19.844;2023-08-06T21:46:38;16.00;99.90
20740;DHT22;10530;49.968;19.844;2023-08-06T21:51:40;16.00;99.90
20740;DHT22;10530;49.968;19.844;2023-08-06T21:56:43;16.00;99.90
20740;DHT22;10530;49.968;19.844;2023-08-06T22:01:46;16.00;99.90
20740;DHT22;10530;49.968;19.844;2023-08-06T22:06:49;15.90;99.90
20740;DHT22;10530;49.968;19.844;2023-08-06T22:11:51;15.90;99.90
20740;DHT22;10530;49.968;19.844;2023-08-06T22:16:55;15.80;99.90
20740;DHT22;10530;49.968;19.844;2023-08-06T22:21:58;15.70;99.90
20740;DHT22;10530;49.968;19.844;2023-08-06T22:27:00;15.70;99.90
20740;DHT22;10530;49.968;19.844;2023-08-06T22:32:04;15.70;99.90
20740;DHT22;10530;49.968;19.844;2023-08-06T22:37:07;15.70;99.90
20740;DHT22;10530;49.968;19.844;2023-08-06T22:42:10;15.70;99.90
20740;DHT22;10530;49.968;19.844;2023-08-06T22:47:14;15.80;99.90
20740;DHT22;10530;49.968;19.844;2023-08-06T22:52:16;15.80;99.90
20740;DHT22;10530;49.968;19.844;2023-08-06T22:57:19;15.80;99.90
20740;DHT22;10530;49.968;19.844;2023-08-06T23:02:22;15.90;99.90
20740;DHT22;10530;49.968;19.844;2023-08-06T23:07:25;15.90;99.90
20740;DHT22;10530;49.968;19.844;2023-08-06T23:12:27;15.90;99.90
20740;DHT22;10530;49.968;19.844;2023-08-06T23:17:30;15.90;99.90
20740;DHT22;10530;49.968;19.844;2023-08-06T23:22:33;15.90;99.90
20740;DHT22;10530;49.968;19.844;2023-08-06T23:27:36;15.90;99.90
20740;DHT22;10530;49.968;19.844;2023-08-06T23:32:40;15.90;99.90
20740;DHT22;10530;49.968;19.844;2023-08-06T23:37:43;15.90;99.90
20740;DHT22;10530;49.968;19.844;2023-08-06T23:42:45;15.90;99.90
20740;DHT22;10530;49.968;19.844;2023-08-06T23:47:48;15.90;99.90
20740;DHT22;10530;49.968;19.844;2023-08-06T23:52:50;15.90;99.90
20740;DHT22;10530;49.968;19.844;2023-08-06T23:57:53;15.90;99.90
